Time;durP1;ratioP1;P1;durP2;ratioP2;P2;SDS_P1;SDS_P2;PMS_P1;PMS_P2;Temp;Humidity;BMP_temperature;BMP_pressure;BME280_temperature;BME280_humidity;BME280_pressure;Samples;Min_cycle;Max_cycle;Signal;HPM_P1;HPM_P2
2022/02/07 00:01:55;;;;;;;1.07;0.70;;;6.40;99.90;;;;;;5049765;28;20560;-58
2022/02/07 00:04:27;;;;;;;7.80;0.80;;;6.40;99.90;;;;;;5048922;28;20204;-58
2022/02/07 00:06:54;;;;;;;1.43;0.60;;;6.40;99.90;;;;;;5040907;28;20202;-58
2022/02/07 00:09:22;;;;;;;3.97;0.80;;;6.40;99.90;;;;;;5059917;28;20277;-57
2022/02/07 00:11:49;;;;;;;2.00;0.60;;;6.50;99.90;;;;;;5047910;28;20554;-59
2022/02/07 00:14:16;;;;;;;3.80;1.17;;;6.50;99.90;;;;;;5049182;28;20202;-58
2022/02/07 00:16:44;;;;;;;1.97;0.80;;;6.50;99.90;;;;;;5048701;28;20199;-58
2022/02/07 00:19:19;;;;;;;0.67;0.60;;;6.50;99.90;;;;;;5048766;28;20216;-58
2022/02/07 00:21:47;;;;;;;0.60;0.60;;;6.40;99.90;;;;;;5049397;28;20196;-58
2022/02/07 00:24:14;;;;;;;1.80;0.60;;;6.40;99.90;;;;;;5048856;28;20204;-58
2022/02/07 00:26:41;;;;;;;4.17;0.70;;;6.40;99.90;;;;;;5047294;28;20212;-59
2022/02/07 00:29:09;;;;;;;0.70;0.70;;;6.40;99.90;;;;;;5048716;28;20293;-58
2022/02/07 00:31:36;;;;;;;1.47;0.80;;;6.40;99.90;;;;;;5050535;28;20257;-58
2022/02/07 00:34:03;;;;;;;0.63;0.57;;;6.40;99.90;;;;;;5052084;28;20603;-58
2022/02/07 00:36:32;;;;;;;1.40;0.73;;;6.40;99.90;;;;;;5025239;28;20321;-58
2022/02/07 00:39:06;;;;;;;1.00;0.60;;;6.50;99.90;;;;;;5044566;28;20200;-58
2022/02/07 00:41:40;;;;;;;2.13;0.63;;;6.50;99.90;;;;;;5051072;28;20520;-59
2022/02/07 00:44:12;;;;;;;2.63;0.77;;;6.50;99.90;;;;;;5047470;28;20272;-59
2022/02/07 00:46:47;;;;;;;1.33;0.60;;;6.50;99.90;;;;;;5052270;28;20260;-58
2022/02/07 00:49:15;;;;;;;1.27;0.60;;;6.50;99.90;;;;;;5046112;28;20266;-57
2022/02/07 00:51:44;;;;;;;1.63;0.60;;;6.40;99.90;;;;;;5034133;28;20196;-57
2022/02/07 00:54:11;;;;;;;0.67;0.53;;;6.50;99.90;;;;;;5052303;28;20216;-57
2022/02/07 00:56:39;;;;;;;0.50;0.50;;;6.50;99.90;;;;;;5050486;28;20262;-57
2022/02/07 00:59:06;;;;;;;0.50;0.50;;;6.50;99.90;;;;;;5052310;28;20527;-57
2022/02/07 01:01:33;;;;;;;1.50;0.80;;;6.50;99.90;;;;;;5045849;28;20221;-57
2022/02/07 01:04:00;;;;;;;2.53;0.83;;;6.50;99.90;;;;;;5028459;28;20211;-57
2022/02/07 01:06:35;;;;;;;0.97;0.80;;;6.50;99.90;;;;;;5030996;28;20663;-58
2022/02/07 01:09:18;;;;;;;1.20;0.60;;;6.50;99.90;;;;;;5030055;28;20213;-58
2022/02/07 01:12:03;;;;;;;0.60;0.50;;;6.50;99.90;;;;;;5032443;28;20205;-58
2022/02/07 01:14:54;;;;;;;2.67;0.60;;;6.50;99.90;;;;;;5049212;28;20190;-60
2022/02/07 01:20:55;;;;;;;7.83;0.90;;;6.60;99.90;;;;;;5033416;28;20197;-59
2022/02/07 01:48:57;;;;;;;2.83;0.60;;;6.50;99.90;;;;;;4949019;28;20295;-58
2022/02/07 01:51:38;;;;;;;2.03;0.70;;;6.50;99.90;;;;;;5029412;28;20204;-59
2022/02/07 01:54:22;;;;;;;2.83;0.80;;;6.50;99.90;;;;;;5029432;28;20235;-58
2022/02/07 01:56:59;;;;;;;1.17;0.77;;;6.50;99.90;;;;;;5025253;28;20209;-57
2022/02/07 01:59:28;;;;;;;0.57;0.57;;;6.50;99.90;;;;;;5026022;28;20213;-58
2022/02/07 02:01:55;;;;;;;4.40;1.00;;;6.50;99.90;;;;;;5031532;28;20194;-59
2022/02/07 02:04:22;;;;;;;3.00;1.10;;;6.50;99.90;;;;;;5030337;28;20258;-58
2022/02/07 02:06:50;;;;;;;1.63;0.80;;;6.50;99.90;;;;;;5029855;28;20221;-59
2022/02/07 02:09:26;;;;;;;1.57;0.70;;;6.50;99.90;;;;;;5030978;28;20204;-59
2022/02/07 02:11:54;;;;;;;0.50;0.50;;;6.50;99.90;;;;;;5028573;28;20213;-59
2022/02/07 02:17:30;;;;;;;0.50;0.50;;;6.50;99.90;;;;;;5026143;28;20203;-58
2022/02/07 02:34:38;;;;;;;3.30;0.93;;;6.70;99.90;;;;;;5030234;28;20201;-58
2022/02/07 02:37:10;;;;;;;2.30;0.80;;;6.70;99.90;;;;;;5029516;28;20209;-57
2022/02/07 02:45:33;;;;;;;1.90;0.83;;;6.60;99.90;;;;;;5022386;28;20295;-59
2022/02/07 02:48:10;;;;;;;5.10;0.90;;;6.60;99.90;;;;;;5031086;28;20215;-56
2022/02/07 02:50:37;;;;;;;2.23;0.80;;;6.50;99.90;;;;;;5016605;28;20199;-58
2022/02/07 02:53:07;;;;;;;1.77;0.67;;;6.50;99.90;;;;;;5024738;28;20217;-60
2022/02/07 02:55:39;;;;;;;0.83;0.60;;;6.50;99.90;;;;;;5028522;28;20638;-58
2022/02/07 02:58:10;;;;;;;1.03;0.60;;;6.50;99.90;;;;;;5029197;28;20309;-58
2022/02/07 03:00:40;;;;;;;3.67;0.97;;;6.50;99.90;;;;;;5028010;28;20296;-58
2022/02/07 03:03:17;;;;;;;1.30;0.87;;;6.40;99.90;;;;;;5030050;28;20570;-59
2022/02/07 03:05:46;;;;;;;2.57;0.77;;;6.40;99.90;;;;;;5028947;28;20692;-58
2022/02/07 03:08:14;;;;;;;1.00;0.70;;;6.30;99.90;;;;;;5031253;28;20205;-58
2022/02/07 03:10:52;;;;;;;0.97;0.70;;;6.30;99.90;;;;;;5027293;28;20207;-58
2022/02/07 03:13:44;;;;;;;2.03;0.60;;;6.30;99.90;;;;;;5029054;28;20201;-59
2022/02/07 03:18:56;;;;;;;2.03;0.60;;;6.30;99.90;;;;;;5030947;28;20199;-59
2022/02/07 03:21:23;;;;;;;1.17;0.80;;;6.20;99.90;;;;;;5021471;28;20321;-58
2022/02/07 03:23:50;;;;;;;4.27;0.80;;;6.20;99.90;;;;;;5028270;28;20198;-58
2022/02/07 03:26:20;;;;;;;3.53;0.83;;;6.20;99.90;;;;;;5027851;28;20217;-57
2022/02/07 03:28:52;;;;;;;4.83;1.13;;;6.20;99.90;;;;;;5028455;28;20230;-58
2022/02/07 03:31:21;;;;;;;5.13;1.07;;;6.20;99.90;;;;;;5017993;28;20231;-59
2022/02/07 03:33:49;;;;;;;2.70;0.70;;;6.20;99.90;;;;;;5028606;28;20220;-58
2022/02/07 03:36:16;;;;;;;0.70;0.50;;;6.20;99.90;;;;;;5019804;28;20283;-60
2022/02/07 03:38:45;;;;;;;1.83;1.03;;;6.20;99.90;;;;;;5018111;28;20218;-59
2022/02/07 03:41:13;;;;;;;2.30;0.90;;;6.20;99.90;;;;;;5021035;28;20199;-58
2022/02/07 03:43:44;;;;;;;4.80;1.13;;;6.20;99.90;;;;;;5021192;28;20207;-58
2022/02/07 03:46:13;;;;;;;1.20;0.53;;;6.20;99.90;;;;;;5029062;28;20295;-58
2022/02/07 03:48:40;;;;;;;1.57;0.70;;;6.20;99.90;;;;;;5028946;28;20266;-57
2022/02/07 03:51:08;;;;;;;6.20;1.10;;;6.20;99.90;;;;;;5026981;28;20205;-58
2022/02/07 03:53:37;;;;;;;1.20;0.80;;;6.20;99.90;;;;;;5026776;28;20211;-59
2022/02/07 03:56:07;;;;;;;1.40;0.73;;;6.20;99.90;;;;;;5025261;28;20289;-59
2022/02/07 03:58:37;;;;;;;1.63;0.60;;;6.20;99.90;;;;;;5011388;28;20675;-57
2022/02/07 04:01:08;;;;;;;1.50;0.43;;;6.20;99.90;;;;;;5047374;28;20236;-59
2022/02/07 04:03:46;;;;;;;0.43;0.43;;;6.20;99.90;;;;;;5034405;28;20209;-58
2022/02/07 04:06:16;;;;;;;0.40;0.40;;;6.20;99.90;;;;;;5027513;28;20231;-59
2022/02/07 04:08:48;;;;;;;0.73;0.30;;;6.20;99.90;;;;;;5022461;28;20274;-59
2022/02/07 04:11:42;;;;;;;0.53;0.37;;;6.20;99.90;;;;;;5021479;28;20232;-59
2022/02/07 04:14:10;;;;;;;0.30;0.30;;;6.30;99.90;;;;;;5027321;28;20211;-59
2022/02/07 04:16:39;;;;;;;2.13;0.47;;;6.30;99.90;;;;;;5027344;28;20584;-59
2022/02/07 04:19:33;;;;;;;1.80;0.60;;;6.30;99.90;;;;;;5027716;28;20700;-59
2022/02/07 04:22:04;;;;;;;0.63;0.57;;;6.30;99.90;;;;;;5029379;28;20251;-58
2022/02/07 04:24:58;;;;;;;0.77;0.53;;;6.30;99.90;;;;;;5027876;28;20196;-59
2022/02/07 04:27:32;;;;;;;0.40;0.40;;;6.40;99.90;;;;;;5025206;28;20612;-59
2022/02/07 04:29:59;;;;;;;1.17;0.50;;;6.40;99.90;;;;;;5023604;28;20779;-59
2022/02/07 04:32:32;;;;;;;0.50;0.50;;;6.40;99.90;;;;;;5028360;28;20533;-59
2022/02/07 04:35:00;;;;;;;0.53;0.53;;;6.40;99.90;;;;;;5029141;28;21389;-59
2022/02/07 04:37:30;;;;;;;1.47;0.43;;;6.50;99.90;;;;;;5022565;28;20198;-59
2022/02/07 04:39:57;;;;;;;0.30;0.30;;;6.50;99.90;;;;;;5024112;28;20272;-58
2022/02/07 04:42:29;;;;;;;0.40;0.30;;;6.50;99.90;;;;;;5027514;28;20299;-58
2022/02/07 04:45:15;;;;;;;2.83;0.77;;;6.50;99.90;;;;;;5026662;28;20245;-58
2022/02/07 04:47:59;;;;;;;2.43;0.50;;;6.60;99.90;;;;;;5023385;28;20670;-58
2022/02/07 04:50:39;;;;;;;1.27;0.50;;;6.60;99.90;;;;;;5018575;28;20208;-59
2022/02/07 04:53:20;;;;;;;0.40;0.40;;;6.60;99.90;;;;;;5027569;28;20205;-58
2022/02/07 04:56:15;;;;;;;0.40;0.40;;;6.60;99.90;;;;;;5025528;28;20674;-59
2022/02/07 04:58:57;;;;;;;0.40;0.40;;;6.60;99.90;;;;;;5027937;28;20224;-59
2022/02/07 05:01:32;;;;;;;0.50;0.40;;;6.60;99.90;;;;;;5028500;28;20288;-58
2022/02/07 05:04:10;;;;;;;0.60;0.60;;;6.60;99.90;;;;;;5028247;28;20357;-58
2022/02/07 05:14:52;;;;;;;0.50;0.50;;;6.50;99.90;;;;;;5028576;28;20641;-57
2022/02/07 05:17:21;;;;;;;0.60;0.60;;;6.50;99.90;;;;;;5030675;28;20197;-57
2022/02/07 05:20:18;;;;;;;0.60;0.60;;;6.50;99.90;;;;;;4978298;28;20223;-59
2022/02/07 05:23:08;;;;;;;0.40;0.40;;;6.50;99.90;;;;;;5024746;28;20259;-58
2022/02/07 05:25:55;;;;;;;0.37;0.37;;;6.50;99.90;;;;;;5018674;28;20684;-57
2022/02/07 05:28:38;;;;;;;1.00;0.40;;;6.50;99.90;;;;;;5030728;28;20209;-58
2022/02/07 05:31:34;;;;;;;0.30;0.30;;;6.50;99.90;;;;;;5021283;28;20217;-58
2022/02/07 05:34:20;;;;;;;0.40;0.40;;;6.50;99.90;;;;;;5033180;28;20202;-57
2022/02/07 05:37:28;;;;;;;0.30;0.30;;;6.50;99.90;;;;;;4952260;28;20692;-59
2022/02/07 05:40:27;;;;;;;0.97;0.50;;;6.50;99.90;;;;;;4949396;28;20205;-57
2022/02/07 05:43:14;;;;;;;0.20;0.20;;;6.40;99.90;;;;;;5016365;28;20822;-58
2022/02/07 05:46:02;;;;;;;1.97;0.40;;;6.40;99.90;;;;;;5048956;28;20666;-58
2022/02/07 05:48:46;;;;;;;0.63;0.43;;;6.40;99.90;;;;;;5046321;28;20584;-57
2022/02/07 05:51:31;;;;;;;0.53;0.50;;;6.40;99.90;;;;;;5026329;28;20293;-57
2022/02/07 05:54:38;;;;;;;5.43;1.43;;;6.50;99.90;;;;;;4970570;28;20537;-58
2022/02/07 05:57:08;;;;;;;1.57;0.73;;;6.40;99.90;;;;;;4969348;28;20701;-56
2022/02/07 05:59:48;;;;;;;1.13;0.80;;;6.30;99.90;;;;;;5000879;28;20208;-58
2022/02/07 06:02:15;;;;;;;1.63;0.90;;;6.30;99.90;;;;;;5052029;28;20216;-55
2022/02/07 06:04:44;;;;;;;1.67;0.70;;;6.20;99.90;;;;;;5029644;28;20211;-58
2022/02/07 06:07:12;;;;;;;2.30;0.87;;;6.20;99.90;;;;;;5040291;28;20225;-59
2022/02/07 06:09:41;;;;;;;1.00;0.63;;;6.20;99.90;;;;;;5036977;28;20207;-58
2022/02/07 06:12:10;;;;;;;0.77;0.40;;;6.10;99.90;;;;;;5031225;28;20607;-58
2022/02/07 06:14:38;;;;;;;3.10;0.90;;;6.10;99.90;;;;;;5022093;28;20240;-57
2022/02/07 06:17:05;;;;;;;1.23;0.90;;;6.00;99.90;;;;;;5028412;28;20258;-58
2022/02/07 06:19:34;;;;;;;0.90;0.60;;;6.00;99.90;;;;;;5023541;28;20265;-57
2022/02/07 06:22:01;;;;;;;2.37;0.70;;;6.00;99.90;;;;;;5033020;28;20215;-58
2022/02/07 06:24:31;;;;;;;1.60;0.83;;;6.00;99.90;;;;;;5032391;28;20204;-59
2022/02/07 06:26:59;;;;;;;0.87;0.73;;;6.00;99.90;;;;;;5031052;28;20227;-57
2022/02/07 06:29:27;;;;;;;1.23;0.80;;;6.00;99.90;;;;;;5044415;28;20572;-58
2022/02/07 06:31:55;;;;;;;2.37;1.27;;;5.90;99.90;;;;;;5033011;28;20226;-57
2022/02/07 06:34:22;;;;;;;0.93;0.70;;;5.90;99.90;;;;;;5050936;28;20198;-58
2022/02/07 06:36:49;;;;;;;1.80;0.80;;;5.80;99.90;;;;;;5032615;28;20208;-58
2022/02/07 06:39:19;;;;;;;0.70;0.70;;;5.90;99.90;;;;;;5038616;28;20211;-58
2022/02/07 06:41:48;;;;;;;5.63;1.57;;;5.80;99.90;;;;;;5029371;28;20623;-57
2022/02/07 06:44:19;;;;;;;4.33;1.50;;;5.80;99.90;;;;;;5024838;28;20232;-57
2022/02/07 06:46:46;;;;;;;3.80;1.70;;;5.80;99.90;;;;;;5023459;28;20208;-59
2022/02/07 06:49:14;;;;;;;2.50;1.37;;;5.80;99.90;;;;;;5025228;28;20204;-58
2022/02/07 06:51:42;;;;;;;3.63;1.43;;;5.80;99.90;;;;;;5019938;28;20213;-58
2022/02/07 06:54:10;;;;;;;2.00;1.20;;;5.80;99.90;;;;;;5045672;28;20205;-58
2022/02/07 06:56:37;;;;;;;1.10;0.83;;;5.80;99.90;;;;;;5028419;28;20287;-58
2022/02/07 06:59:05;;;;;;;2.63;1.00;;;5.80;99.90;;;;;;5017230;28;20211;-57
2022/02/07 07:01:36;;;;;;;1.50;0.93;;;5.90;99.90;;;;;;5026960;28;20716;-58
2022/02/07 07:04:03;;;;;;;0.67;0.67;;;5.90;99.90;;;;;;5019510;28;20223;-58
2022/02/07 07:06:32;;;;;;;1.40;0.90;;;5.90;99.90;;;;;;5028817;28;20211;-58
2022/02/07 07:09:03;;;;;;;2.37;1.07;;;6.00;99.90;;;;;;5028851;28;20674;-58
2022/02/07 07:11:33;;;;;;;2.30;1.13;;;6.00;99.90;;;;;;5026451;28;20282;-58
2022/02/07 07:14:15;;;;;;;1.43;1.03;;;6.00;99.90;;;;;;5019095;28;20221;-58
2022/02/07 07:16:53;;;;;;;0.83;0.80;;;6.00;99.90;;;;;;5022274;28;20303;-58
2022/02/07 07:19:26;;;;;;;2.70;0.80;;;6.00;99.90;;;;;;5019956;28;20208;-57
2022/02/07 07:21:54;;;;;;;1.97;0.70;;;6.00;99.90;;;;;;5029889;28;20349;-59
2022/02/07 07:24:21;;;;;;;3.17;1.03;;;6.00;99.90;;;;;;5020490;28;20196;-57
2022/02/07 07:26:49;;;;;;;4.93;0.90;;;6.10;99.90;;;;;;5011505;28;20303;-59
2022/02/07 07:29:24;;;;;;;0.87;0.60;;;6.10;99.90;;;;;;5023162;28;20656;-59
2022/02/07 07:31:59;;;;;;;0.70;0.70;;;6.10;99.90;;;;;;5028307;28;20208;-59
2022/02/07 07:34:30;;;;;;;2.03;0.60;;;6.10;99.90;;;;;;5014158;28;20566;-58
2022/02/07 07:37:00;;;;;;;0.97;0.70;;;6.10;99.90;;;;;;5013004;28;20289;-58
2022/02/07 07:39:28;;;;;;;1.07;0.80;;;6.10;99.90;;;;;;5017314;28;20228;-59
2022/02/07 07:41:57;;;;;;;1.17;0.87;;;6.20;99.90;;;;;;5025738;28;20260;-58
2022/02/07 07:44:46;;;;;;;1.83;0.70;;;6.20;99.90;;;;;;5022672;28;20240;-56
2022/02/07 07:47:32;;;;;;;0.60;0.60;;;6.20;99.90;;;;;;5019941;28;20612;-57
2022/02/07 07:50:15;;;;;;;0.70;0.70;;;6.10;99.90;;;;;;5023099;28;20202;-59
2022/02/07 07:53:28;;;;;;;1.63;0.80;;;6.20;99.90;;;;;;4957314;28;20206;-58
2022/02/07 08:01:43;;;;;;;3.27;0.93;;;6.10;99.90;;;;;;5026405;28;20295;-58
2022/02/07 08:04:19;;;;;;;1.83;0.80;;;6.10;99.90;;;;;;5027209;28;20207;-58
2022/02/07 08:06:54;;;;;;;5.10;1.10;;;6.10;99.90;;;;;;5027141;28;20225;-59
2022/02/07 08:12:11;;;;;;;1.13;0.90;;;6.20;99.90;;;;;;5015967;28;20230;-58
2022/02/07 08:14:42;;;;;;;2.73;0.83;;;6.20;99.90;;;;;;5014067;28;20304;-59
2022/02/07 08:17:09;;;;;;;1.13;0.90;;;6.20;99.90;;;;;;5020578;28;20373;-58
2022/02/07 08:19:43;;;;;;;2.50;1.47;;;6.30;99.90;;;;;;5028534;28;20212;-57
2022/02/07 08:22:10;;;;;;;4.87;1.37;;;6.30;99.90;;;;;;5019422;28;20366;-58
2022/02/07 08:24:37;;;;;;;4.70;1.37;;;6.30;99.90;;;;;;5046867;28;20664;-58
2022/02/07 08:27:05;;;;;;;2.87;1.10;;;6.30;99.90;;;;;;5023904;28;20216;-59
2022/02/07 08:29:32;;;;;;;3.77;1.50;;;6.40;99.90;;;;;;5024337;28;20201;-58
2022/02/07 08:32:00;;;;;;;2.60;1.50;;;6.40;99.90;;;;;;5029429;28;20275;-59
2022/02/07 08:34:27;;;;;;;3.77;1.60;;;6.30;99.90;;;;;;5016511;28;20258;-58
2022/02/07 08:36:58;;;;;;;1.83;1.30;;;6.30;99.90;;;;;;5028658;28;20200;-59
2022/02/07 08:39:25;;;;;;;3.33;1.27;;;6.20;99.90;;;;;;5029146;28;20659;-59
2022/02/07 08:41:52;;;;;;;2.53;1.30;;;6.20;99.90;;;;;;5021652;28;20212;-58
2022/02/07 08:44:19;;;;;;;4.20;1.63;;;6.20;99.90;;;;;;5029980;28;20215;-58
2022/02/07 08:46:46;;;;;;;2.27;1.10;;;6.10;99.90;;;;;;5042522;28;20220;-58
2022/02/07 08:49:14;;;;;;;7.20;1.87;;;6.10;99.90;;;;;;5047536;28;20265;-59
2022/02/07 08:51:41;;;;;;;2.73;1.20;;;7.00;99.90;;;;;;5039902;28;20254;-59
2022/02/07 08:54:10;;;;;;;4.27;1.60;;;6.20;99.90;;;;;;5047337;28;20248;-59
2022/02/07 08:56:42;;;;;;;2.47;1.20;;;6.20;99.90;;;;;;5049508;28;20203;-59
2022/02/07 08:59:12;;;;;;;3.67;1.27;;;6.20;99.90;;;;;;5042194;28;20194;-59
2022/02/07 09:01:48;;;;;;;6.73;1.10;;;6.30;99.90;;;;;;5052046;28;20543;-59
2022/02/07 09:04:44;;;;;;;3.37;1.10;;;6.30;99.90;;;;;;5043615;28;20192;-58
2022/02/07 09:07:15;;;;;;;3.60;1.07;;;6.40;99.90;;;;;;5045221;28;20227;-59
2022/02/07 09:09:45;;;;;;;4.03;1.00;;;6.40;99.90;;;;;;5045264;28;20607;-59
2022/02/07 09:12:13;;;;;;;1.23;1.10;;;6.40;99.90;;;;;;5039217;28;20206;-59
2022/02/07 09:14:51;;;;;;;3.63;1.30;;;6.40;99.90;;;;;;5049340;28;20660;-58
2022/02/07 09:17:18;;;;;;;4.23;1.40;;;6.50;99.90;;;;;;5050978;28;20190;-58
2022/02/07 09:19:45;;;;;;;6.77;1.37;;;6.50;99.90;;;;;;5042544;28;20193;-58
2022/02/07 09:22:12;;;;;;;2.47;1.50;;;6.50;99.90;;;;;;5052592;28;20210;-59
2022/02/07 09:24:39;;;;;;;8.23;1.60;;;6.60;99.90;;;;;;5051021;28;20199;-58
2022/02/07 09:27:08;;;;;;;6.97;1.70;;;6.70;99.90;;;;;;5051041;28;20603;-58
2022/02/07 09:29:35;;;;;;;2.77;1.50;;;6.70;99.90;;;;;;5046245;28;20196;-59
2022/02/07 09:32:02;;;;;;;2.03;1.00;;;6.80;99.90;;;;;;5049823;28;20215;-58
2022/02/07 09:34:30;;;;;;;4.23;1.40;;;6.90;99.90;;;;;;5051219;28;20639;-60
2022/02/07 09:36:57;;;;;;;6.13;1.17;;;7.00;99.90;;;;;;5043766;28;20604;-59
2022/02/07 09:39:30;;;;;;;2.23;1.10;;;7.10;99.90;;;;;;5043580;28;20331;-58
2022/02/07 09:41:58;;;;;;;10.20;1.93;;;7.00;99.90;;;;;;5043451;28;20620;-59
2022/02/07 09:44:39;;;;;;;4.07;1.10;;;7.00;99.90;;;;;;5032973;28;20241;-59
2022/02/07 09:47:08;;;;;;;3.13;1.40;;;7.00;99.90;;;;;;5045608;28;20300;-59
2022/02/07 09:49:35;;;;;;;2.80;1.00;;;7.10;99.90;;;;;;5051752;28;20193;-58
2022/02/07 09:52:04;;;;;;;3.47;1.50;;;7.10;99.90;;;;;;5050528;28;20198;-58
2022/02/07 09:54:31;;;;;;;2.57;1.10;;;7.20;99.90;;;;;;5029631;28;20233;-60
2022/02/07 09:56:59;;;;;;;1.80;0.70;;;7.20;99.90;;;;;;5045439;28;20205;-59
2022/02/07 09:59:29;;;;;;;2.93;1.40;;;7.30;99.90;;;;;;5031246;28;20754;-58
2022/02/07 10:02:01;;;;;;;8.47;1.47;;;7.50;99.90;;;;;;5049889;28;20283;-59
2022/02/07 10:04:34;;;;;;;4.40;1.40;;;7.60;99.90;;;;;;5050415;28;20197;-59
2022/02/07 10:07:15;;;;;;;4.27;1.17;;;7.60;99.90;;;;;;5047520;28;20201;-59
2022/02/07 10:09:55;;;;;;;5.10;1.50;;;7.50;99.90;;;;;;5040266;28;20194;-59
2022/02/07 10:12:39;;;;;;;5.63;1.30;;;7.60;99.90;;;;;;5051227;28;20239;-59
2022/02/07 10:18:13;;;;;;;4.23;1.27;;;7.80;99.90;;;;;;5037335;28;20423;-59
2022/02/07 10:37:55;;;;;;;1.10;0.83;;;8.70;99.90;;;;;;5015624;28;20197;-57
2022/02/07 10:40:30;;;;;;;2.00;0.60;;;8.80;99.90;;;;;;5040165;28;20538;-58
2022/02/07 10:43:21;;;;;;;3.60;0.90;;;9.00;99.90;;;;;;5049722;28;20633;-62
2022/02/07 10:45:59;;;;;;;2.90;0.97;;;9.10;99.90;;;;;;5035755;28;20260;-58
2022/02/07 10:48:51;;;;;;;2.67;0.90;;;9.20;99.90;;;;;;5047093;28;20287;-59
2022/02/07 10:51:21;;;;;;;3.43;1.20;;;9.30;99.30;;;;;;5041614;28;20210;-59
2022/02/07 10:53:50;;;;;;;3.20;1.37;;;9.40;98.20;;;;;;5043917;28;20275;-59
2022/02/07 10:56:20;;;;;;;1.37;0.83;;;9.30;97.50;;;;;;5048427;28;20202;-58
2022/02/07 10:58:50;;;;;;;4.83;1.00;;;9.40;97.40;;;;;;5049589;28;20213;-59
2022/02/07 11:01:23;;;;;;;1.43;0.83;;;9.40;95.60;;;;;;5048561;28;20259;-59
2022/02/07 11:03:55;;;;;;;1.63;1.20;;;9.30;96.00;;;;;;5029821;28;20640;-59
2022/02/07 11:06:29;;;;;;;4.23;1.17;;;9.10;95.20;;;;;;5045546;28;20197;-59
2022/02/07 11:09:08;;;;;;;5.87;0.93;;;9.20;95.90;;;;;;5050174;28;20309;-58
2022/02/07 11:14:48;;;;;;;2.80;0.90;;;9.10;95.50;;;;;;5049674;28;20192;-58
2022/02/07 11:20:34;;;;;;;2.93;0.90;;;8.90;96.10;;;;;;4956988;28;20232;-58
2022/02/07 11:23:15;;;;;;;3.33;0.80;;;8.00;95.40;;;;;;4957370;28;20654;-59
2022/02/07 11:25:48;;;;;;;1.27;0.70;;;8.70;95.90;;;;;;5011560;28;20221;-59
2022/02/07 11:28:24;;;;;;;1.10;0.60;;;8.70;96.20;;;;;;5048160;28;20208;-58
2022/02/07 11:30:54;;;;;;;1.37;0.87;;;8.80;96.50;;;;;;5045221;28;20204;-58
2022/02/07 11:33:50;;;;;;;1.50;0.80;;;8.90;96.60;;;;;;5037130;28;20226;-58
2022/02/07 11:36:30;;;;;;;5.43;1.00;;;9.10;96.60;;;;;;5038756;28;20234;-59
2022/02/07 11:39:00;;;;;;;3.33;1.13;;;9.30;96.20;;;;;;5049732;28;20201;-59
2022/02/07 11:41:27;;;;;;;3.07;0.80;;;9.40;94.80;;;;;;5020687;28;20296;-58
2022/02/07 11:43:54;;;;;;;3.47;0.80;;;9.30;95.00;;;;;;5042534;28;20285;-59
2022/02/07 11:46:22;;;;;;;2.63;1.10;;;9.20;95.30;;;;;;5048479;28;20235;-58
2022/02/07 11:48:51;;;;;;;3.70;1.30;;;9.20;94.90;;;;;;5049097;28;20280;-58
2022/02/07 11:51:21;;;;;;;3.73;1.00;;;9.10;94.40;;;;;;5047179;28;20551;-57
2022/02/07 11:53:52;;;;;;;4.87;1.40;;;9.10;94.70;;;;;;5049733;28;20225;-59
2022/02/07 11:56:25;;;;;;;2.07;0.97;;;9.10;94.10;;;;;;5019560;28;20661;-58
2022/02/07 11:59:14;;;;;;;0.90;0.63;;;9.10;94.30;;;;;;5039527;28;20196;-58
2022/02/07 12:01:58;;;;;;;1.47;1.03;;;9.10;94.70;;;;;;5045785;28;20194;-58
2022/02/07 12:04:35;;;;;;;1.23;1.00;;;9.10;94.80;;;;;;5048760;28;20629;-58
2022/02/07 12:07:31;;;;;;;2.43;1.10;;;9.10;95.00;;;;;;5049154;28;20210;-58
2022/02/07 12:10:25;;;;;;;1.50;0.93;;;9.10;94.80;;;;;;5036079;28;20247;-57
2022/02/07 12:12:52;;;;;;;3.63;1.17;;;9.10;94.90;;;;;;5048627;28;20198;-59
2022/02/07 12:15:27;;;;;;;3.13;1.10;;;9.20;94.60;;;;;;5047860;28;20256;-57
2022/02/07 12:17:57;;;;;;;6.17;1.10;;;9.20;93.90;;;;;;5041720;28;20302;-58
2022/02/07 12:20:30;;;;;;;2.03;1.00;;;9.20;93.60;;;;;;5048458;28;20194;-59
2022/02/07 12:22:59;;;;;;;2.70;1.00;;;9.30;93.50;;;;;;5049076;28;20674;-59
2022/02/07 12:25:45;;;;;;;1.77;1.00;;;9.30;93.50;;;;;;5043525;28;20265;-60
2022/02/07 12:28:17;;;;;;;3.40;0.80;;;9.40;93.50;;;;;;5052002;28;20237;-59
2022/02/07 12:30:48;;;;;;;1.97;0.80;;;9.40;93.60;;;;;;5044593;28;20681;-59
2022/02/07 12:33:17;;;;;;;2.47;1.10;;;9.50;93.60;;;;;;5049038;28;20310;-59
2022/02/07 12:35:46;;;;;;;2.00;0.80;;;9.40;93.60;;;;;;5049846;28;20201;-57
2022/02/07 12:38:13;;;;;;;3.47;1.10;;;9.40;93.50;;;;;;5044892;28;20713;-58
2022/02/07 12:40:43;;;;;;;4.47;0.87;;;9.30;92.70;;;;;;5051343;28;20229;-58
2022/02/07 12:43:12;;;;;;;5.67;1.00;;;9.10;92.30;;;;;;5049777;28;20626;-58
2022/02/07 12:45:41;;;;;;;2.13;1.23;;;9.00;92.70;;;;;;5049531;28;20239;-59
2022/02/07 12:48:13;;;;;;;2.80;1.10;;;8.90;93.00;;;;;;5052110;28;20241;-59
2022/02/07 12:50:41;;;;;;;3.40;1.20;;;8.80;93.30;;;;;;5051634;28;20623;-59
2022/02/07 12:53:09;;;;;;;2.43;1.37;;;8.80;93.50;;;;;;5047269;28;20677;-59
2022/02/07 12:55:36;;;;;;;3.53;1.40;;;8.80;93.40;;;;;;5043217;28;20208;-58
2022/02/07 12:58:04;;;;;;;10.63;1.93;;;8.80;93.60;;;;;;5053103;28;20226;-57
2022/02/07 13:00:31;;;;;;;1.27;0.93;;;8.80;93.40;;;;;;5022911;28;20202;-59
2022/02/07 13:03:03;;;;;;;3.17;0.93;;;8.70;92.50;;;;;;5034051;28;20206;-60
2022/02/07 13:05:30;;;;;;;2.90;1.13;;;8.60;92.80;;;;;;5052078;28;20653;-58
2022/02/07 13:08:00;;;;;;;3.43;0.90;;;8.50;92.50;;;;;;5041886;28;20606;-58
2022/02/07 13:10:34;;;;;;;2.87;0.90;;;8.50;92.90;;;;;;5028274;28;20218;-58
2022/02/07 13:13:16;;;;;;;2.83;0.90;;;8.40;92.70;;;;;;5052833;28;20207;-59
2022/02/07 13:15:47;;;;;;;1.10;0.90;;;8.30;92.80;;;;;;5050864;28;20710;-59
2022/02/07 13:18:17;;;;;;;5.70;1.47;;;8.30;93.10;;;;;;5044939;28;20677;-58
2022/02/07 13:20:44;;;;;;;2.60;0.83;;;8.30;93.00;;;;;;5044685;28;20193;-58
2022/02/07 13:23:15;;;;;;;2.47;1.00;;;8.30;93.30;;;;;;5049164;28;20634;-57
2022/02/07 13:25:45;;;;;;;5.27;1.17;;;8.30;93.60;;;;;;5049065;28;20202;-58
2022/02/07 13:28:14;;;;;;;2.80;1.00;;;8.30;93.80;;;;;;5031019;28;20221;-58
2022/02/07 13:30:44;;;;;;;6.10;1.37;;;8.40;94.00;;;;;;5051439;28;20281;-57
2022/02/07 13:33:11;;;;;;;2.70;1.00;;;8.40;93.40;;;;;;5049612;28;20264;-58
2022/02/07 13:35:42;;;;;;;2.13;1.00;;;8.40;93.50;;;;;;5048393;28;20206;-57
2022/02/07 13:38:09;;;;;;;3.90;1.07;;;8.40;93.70;;;;;;5051798;28;20282;-57
2022/02/07 13:40:42;;;;;;;5.97;1.60;;;8.40;93.20;;;;;;5050013;28;20683;-58
2022/02/07 13:43:11;;;;;;;6.53;1.70;;;8.40;92.90;;;;;;5052355;28;20201;-57
2022/02/07 13:45:39;;;;;;;2.97;0.90;;;8.30;92.80;;;;;;5049839;28;20280;-58
2022/02/07 13:48:08;;;;;;;3.47;1.30;;;8.20;93.10;;;;;;5051601;28;20201;-58
2022/02/07 13:50:37;;;;;;;2.73;1.00;;;8.20;93.20;;;;;;5045457;28;20654;-57
2022/02/07 13:53:05;;;;;;;2.10;0.93;;;8.20;93.40;;;;;;5046424;28;20194;-59
2022/02/07 13:55:36;;;;;;;1.90;0.97;;;8.10;93.50;;;;;;5044131;28;20216;-59
2022/02/07 13:58:07;;;;;;;3.37;1.13;;;8.20;93.80;;;;;;5050813;28;20665;-59
2022/02/07 14:00:37;;;;;;;6.13;1.30;;;8.20;93.70;;;;;;5050827;28;20745;-58
2022/02/07 14:03:15;;;;;;;4.67;1.23;;;8.20;93.60;;;;;;5051292;28;20605;-59
2022/02/07 14:05:44;;;;;;;1.30;0.90;;;8.20;93.40;;;;;;5051448;28;20553;-58
2022/02/07 14:08:12;;;;;;;4.13;0.90;;;8.20;93.60;;;;;;5046468;28;20198;-60
2022/02/07 14:10:41;;;;;;;3.30;1.10;;;8.20;93.70;;;;;;5049742;28;20285;-58
2022/02/07 14:13:10;;;;;;;4.00;0.73;;;8.10;93.50;;;;;;5050833;28;20284;-58
2022/02/07 14:15:40;;;;;;;1.77;0.90;;;8.10;93.70;;;;;;5032103;28;20225;-58
2022/02/07 14:18:09;;;;;;;2.87;0.93;;;8.20;93.80;;;;;;5043663;28;20620;-58
2022/02/07 14:20:38;;;;;;;3.10;1.20;;;8.10;94.00;;;;;;5051355;28;20589;-57
2022/02/07 14:23:06;;;;;;;1.77;1.23;;;8.20;94.00;;;;;;5051080;28;20273;-59
2022/02/07 14:25:33;;;;;;;4.03;1.40;;;8.20;94.00;;;;;;5049313;28;20202;-59
2022/02/07 14:28:02;;;;;;;4.73;1.37;;;8.20;93.90;;;;;;5050888;28;20194;-59
2022/02/07 14:30:30;;;;;;;3.93;1.20;;;8.20;93.90;;;;;;5049186;28;20284;-59
2022/02/07 14:32:59;;;;;;;3.13;1.13;;;8.30;94.00;;;;;;5018684;28;20256;-58
2022/02/07 14:35:27;;;;;;;2.00;0.97;;;8.20;93.90;;;;;;5049715;28;20232;-58
2022/02/07 14:37:56;;;;;;;3.83;1.27;;;8.20;94.10;;;;;;5050984;28;20320;-59
2022/02/07 14:40:23;;;;;;;2.60;1.30;;;8.20;94.20;;;;;;5049286;28;20182;-59
2022/02/07 14:42:50;;;;;;;1.33;0.90;;;8.10;94.30;;;;;;5045733;28;20700;-59
2022/02/07 14:45:25;;;;;;;2.20;0.90;;;8.10;94.40;;;;;;5046989;28;20299;-58
2022/02/07 14:47:53;;;;;;;3.97;1.50;;;8.10;94.40;;;;;;5028539;28;20213;-58
2022/02/07 14:50:23;;;;;;;3.47;1.30;;;8.10;94.60;;;;;;5044217;28;20620;-58
2022/02/07 14:52:50;;;;;;;6.20;1.70;;;8.00;94.70;;;;;;5050304;28;20271;-58
2022/02/07 14:55:19;;;;;;;4.57;1.50;;;8.00;94.80;;;;;;5047734;28;20205;-58
2022/02/07 14:57:46;;;;;;;5.93;1.50;;;8.00;94.90;;;;;;5050261;28;20666;-58
2022/02/07 15:00:16;;;;;;;5.80;1.20;;;8.00;95.10;;;;;;5045991;28;20682;-58
2022/02/07 15:02:44;;;;;;;9.83;1.50;;;7.90;95.20;;;;;;5049776;28;20207;-58
2022/02/07 15:05:12;;;;;;;1.23;1.00;;;7.90;95.30;;;;;;5029360;28;20566;-58